Time;durP1;ratioP1;P1;durP2;ratioP2;P2;SDS_P1;SDS_P2;PMS_P1;PMS_P2;Temp;Humidity;BMP_temperature;BMP_pressure;BME280_temperature;BME280_humidity;BME280_pressure;Samples;Min_cycle;Max_cycle;Signal;HPM_P1;HPM_P2
2021/09/22 00:00:08;;;;;;;13.25;8.05;;;15.50;71.40;;;;;;5095063;28;20509;-75
2021/09/22 00:02:34;;;;;;;11.02;7.43;;;15.50;71.20;;;;;;5113952;28;20791;-75
2021/09/22 00:04:59;;;;;;;11.88;7.90;;;15.40;71.40;;;;;;5115363;28;20020;-74
2021/09/22 00:07:25;;;;;;;11.93;7.57;;;15.40;71.30;;;;;;5115412;28;20106;-74
2021/09/22 00:09:53;;;;;;;10.75;7.28;;;15.40;71.40;;;;;;5106770;28;20020;-75
2021/09/22 00:12:19;;;;;;;11.38;7.75;;;15.40;71.20;;;;;;5095065;28;20035;-75
2021/09/22 00:14:44;;;;;;;10.10;7.45;;;15.30;71.20;;;;;;5077114;28;20091;-75
2021/09/22 00:17:10;;;;;;;15.05;7.50;;;15.30;71.10;;;;;;5094682;28;20568;-75
2021/09/22 00:19:36;;;;;;;10.25;7.60;;;15.30;71.20;;;;;;5094872;28;20032;-75
2021/09/22 00:22:01;;;;;;;13.10;8.05;;;15.30;71.20;;;;;;5094907;28;20050;-75
2021/09/22 00:24:27;;;;;;;10.55;7.53;;;15.20;71.20;;;;;;5094852;28;20548;-75
2021/09/22 00:26:52;;;;;;;10.75;7.15;;;15.20;71.40;;;;;;5094782;28;20059;-75
2021/09/22 00:29:18;;;;;;;11.10;7.78;;;15.20;71.50;;;;;;5093555;28;20024;-75
2021/09/22 00:31:44;;;;;;;11.90;8.05;;;15.20;71.70;;;;;;5076675;28;20035;-74
2021/09/22 00:34:10;;;;;;;9.80;7.03;;;15.10;71.90;;;;;;5094588;28;20024;-75
2021/09/22 00:36:36;;;;;;;10.38;7.50;;;15.10;71.90;;;;;;5094779;28;20460;-75
2021/09/22 00:39:03;;;;;;;12.65;7.40;;;15.00;71.90;;;;;;5094622;28;20086;-75
2021/09/22 00:41:29;;;;;;;11.57;7.57;;;15.00;72.20;;;;;;5097669;28;20016;-75
2021/09/22 00:43:57;;;;;;;10.77;7.65;;;15.00;72.10;;;;;;5108127;28;20110;-74
2021/09/22 00:46:23;;;;;;;13.45;8.75;;;15.00;72.10;;;;;;5094633;28;20035;-75
2021/09/22 00:48:49;;;;;;;12.00;7.95;;;15.00;72.20;;;;;;5092116;28;20572;-75
2021/09/22 00:51:14;;;;;;;11.35;7.30;;;15.00;72.10;;;;;;5101810;28;20107;-75
2021/09/22 00:53:40;;;;;;;11.80;7.45;;;14.90;72.00;;;;;;5115223;28;20035;-74
2021/09/22 00:56:06;;;;;;;12.52;7.85;;;15.00;71.90;;;;;;5115062;28;20339;-75
2021/09/22 00:58:33;;;;;;;12.48;7.93;;;14.90;72.30;;;;;;5096716;28;20027;-74
2021/09/22 01:01:03;;;;;;;14.70;7.93;;;14.90;72.20;;;;;;5108558;28;20027;-75
2021/09/22 01:03:29;;;;;;;13.05;8.90;;;14.90;72.30;;;;;;5080143;28;20123;-75
2021/09/22 01:05:55;;;;;;;13.10;8.70;;;14.90;72.30;;;;;;5098207;28;20048;-75
2021/09/22 01:08:22;;;;;;;12.63;8.45;;;14.90;72.30;;;;;;5079944;28;20035;-75
2021/09/22 01:10:49;;;;;;;12.82;8.48;;;14.90;72.30;;;;;;5080359;28;20028;-75
2021/09/22 01:13:16;;;;;;;20.17;9.40;;;14.90;72.30;;;;;;5098110;28;20032;-75
2021/09/22 01:15:45;;;;;;;14.95;9.57;;;14.80;72.50;;;;;;5079709;28;20375;-75
2021/09/22 01:18:16;;;;;;;15.20;8.55;;;14.80;72.70;;;;;;5097786;28;20032;-75
2021/09/22 01:20:43;;;;;;;14.30;8.93;;;14.80;72.70;;;;;;5097844;28;20566;-75
2021/09/22 01:23:09;;;;;;;13.07;8.30;;;14.80;72.80;;;;;;5097696;28;20041;-75
2021/09/22 01:25:40;;;;;;;13.75;9.32;;;14.70;72.80;;;;;;5097685;28;20115;-75
2021/09/22 01:28:06;;;;;;;14.88;9.13;;;14.70;72.90;;;;;;5097929;28;20028;-75
2021/09/22 01:30:32;;;;;;;13.32;8.50;;;14.70;72.80;;;;;;5097844;28;20448;-74
2021/09/22 01:33:06;;;;;;;13.35;9.07;;;14.70;72.80;;;;;;5097594;28;20032;-75
2021/09/22 01:35:40;;;;;;;14.95;9.07;;;14.60;73.00;;;;;;5097328;28;20053;-74
2021/09/22 01:38:09;;;;;;;14.23;8.82;;;14.70;72.80;;;;;;5101187;28;20478;-75
2021/09/22 01:40:37;;;;;;;14.05;9.00;;;14.60;72.70;;;;;;5117921;28;20020;-74
2021/09/22 01:43:05;;;;;;;14.38;9.55;;;14.60;72.70;;;;;;5104961;27;20397;-75
2021/09/22 01:45:31;;;;;;;14.25;9.07;;;14.70;72.70;;;;;;5097462;28;20390;-74
2021/09/22 01:47:57;;;;;;;13.40;8.25;;;14.70;72.40;;;;;;5097397;28;20062;-74
2021/09/22 01:50:23;;;;;;;13.90;9.48;;;14.70;72.50;;;;;;5096947;28;20056;-74
2021/09/22 01:52:52;;;;;;;15.07;9.82;;;14.70;72.50;;;;;;5097368;28;20402;-75
2021/09/22 01:55:20;;;;;;;11.02;8.27;;;14.70;72.30;;;;;;5095802;28;20386;-74
2021/09/22 01:57:49;;;;;;;14.75;9.43;;;14.70;72.20;;;;;;5097236;28;20055;-75
2021/09/22 02:00:15;;;;;;;13.65;8.75;;;14.60;72.30;;;;;;5106549;28;20024;-75
2021/09/22 02:02:41;;;;;;;16.25;9.25;;;14.60;72.30;;;;;;5117556;28;20024;-74
2021/09/22 02:05:07;;;;;;;14.75;9.45;;;14.60;72.30;;;;;;5117436;28;20039;-74
2021/09/22 02:07:33;;;;;;;14.15;9.50;;;14.60;72.40;;;;;;5117420;28;20027;-75
2021/09/22 02:09:59;;;;;;;18.05;10.15;;;14.50;72.40;;;;;;5107346;28;20032;-75
2021/09/22 02:12:26;;;;;;;15.02;9.30;;;14.60;72.10;;;;;;5096440;28;20047;-75
2021/09/22 02:14:52;;;;;;;15.35;9.82;;;14.70;72.00;;;;;;5111320;28;20027;-75
2021/09/22 02:17:18;;;;;;;15.95;10.55;;;14.60;71.80;;;;;;5113029;28;20070;-74
2021/09/22 02:19:43;;;;;;;16.30;9.70;;;14.60;71.90;;;;;;5090064;28;20034;-75
2021/09/22 02:22:09;;;;;;;16.38;10.00;;;14.60;72.00;;;;;;5078431;28;20028;-74
2021/09/22 02:24:37;;;;;;;14.60;9.38;;;14.50;72.00;;;;;;5096574;28;20518;-75
2021/09/22 02:27:04;;;;;;;13.73;10.07;;;14.60;71.90;;;;;;5078334;28;20036;-75
2021/09/22 02:29:29;;;;;;;17.48;9.90;;;14.50;71.90;;;;;;5096664;28;20474;-75
2021/09/22 02:31:55;;;;;;;17.05;9.90;;;14.50;71.80;;;;;;5096562;28;20054;-75
2021/09/22 02:34:21;;;;;;;17.42;10.15;;;14.50;71.90;;;;;;5077887;28;20443;-74
2021/09/22 02:36:46;;;;;;;15.98;10.15;;;14.50;72.00;;;;;;5096344;28;20067;-74
2021/09/22 02:39:12;;;;;;;16.38;10.77;;;14.50;72.20;;;;;;5096242;28;20056;-75
2021/09/22 02:41:38;;;;;;;14.55;9.95;;;14.50;72.10;;;;;;5101705;27;20047;-74
2021/09/22 02:44:04;;;;;;;14.02;9.48;;;14.40;72.10;;;;;;5117426;27;20020;-75
2021/09/22 02:46:30;;;;;;;14.23;9.80;;;14.40;72.30;;;;;;5095160;28;20035;-74
2021/09/22 02:48:56;;;;;;;13.40;9.43;;;14.40;72.30;;;;;;5096253;28;20036;-75
2021/09/22 02:51:22;;;;;;;15.57;9.60;;;14.30;72.40;;;;;;5096081;28;20138;-75
2021/09/22 02:53:47;;;;;;;16.25;10.27;;;14.40;72.50;;;;;;5096108;28;20101;-75
2021/09/22 02:56:13;;;;;;;15.07;9.57;;;14.30;72.50;;;;;;5096024;28;20035;-75
2021/09/22 02:58:39;;;;;;;16.35;10.60;;;14.30;72.20;;;;;;5104101;28;20545;-75
2021/09/22 03:01:04;;;;;;;16.88;10.68;;;14.30;72.30;;;;;;5116613;28;20031;-75
2021/09/22 03:03:31;;;;;;;16.63;11.32;;;14.30;72.20;;;;;;5116331;28;20058;-75
2021/09/22 03:05:57;;;;;;;18.40;11.15;;;14.30;72.40;;;;;;5116285;28;20055;-74
2021/09/22 03:08:23;;;;;;;16.27;11.25;;;14.30;72.30;;;;;;5104516;28;20040;-74
2021/09/22 03:10:49;;;;;;;17.90;10.30;;;14.20;72.50;;;;;;5077725;28;20767;-74
2021/09/22 03:13:15;;;;;;;20.42;11.00;;;14.20;72.50;;;;;;5095796;28;20056;-75
2021/09/22 03:15:40;;;;;;;17.90;10.93;;;14.20;72.70;;;;;;5095634;28;20039;-75
2021/09/22 03:18:06;;;;;;;14.23;8.90;;;14.20;72.80;;;;;;5083797;28;20020;-75
2021/09/22 03:20:32;;;;;;;17.73;10.50;;;14.20;72.90;;;;;;5116115;28;20478;-74
2021/09/22 03:22:58;;;;;;;16.23;9.88;;;14.20;72.50;;;;;;5115237;28;20607;-75
2021/09/22 03:25:24;;;;;;;17.60;10.30;;;14.20;72.30;;;;;;5105263;28;20083;-74
2021/09/22 03:27:50;;;;;;;17.80;10.60;;;14.20;72.30;;;;;;5095611;28;20047;-75
2021/09/22 03:30:16;;;;;;;19.13;11.10;;;14.20;72.40;;;;;;5107773;28;20027;-74
2021/09/22 03:32:41;;;;;;;16.42;10.98;;;14.20;72.60;;;;;;5115891;28;20397;-74
2021/09/22 03:35:08;;;;;;;19.23;11.38;;;14.10;72.70;;;;;;5115880;28;21135;-75
2021/09/22 03:37:33;;;;;;;17.25;10.23;;;14.00;72.80;;;;;;5097673;28;20023;-75
2021/09/22 03:40:05;;;;;;;17.17;9.57;;;14.10;72.60;;;;;;5096870;28;20028;-75
2021/09/22 03:42:30;;;;;;;16.58;10.13;;;14.10;73.00;;;;;;5090165;28;20083;-75
2021/09/22 03:44:56;;;;;;;16.48;10.75;;;14.00;72.80;;;;;;5095632;28;20028;-75
2021/09/22 03:47:22;;;;;;;18.30;10.98;;;14.00;73.10;;;;;;5095242;28;20556;-74
2021/09/22 03:49:47;;;;;;;16.88;10.70;;;14.00;73.10;;;;;;5112590;28;20490;-75
2021/09/22 03:52:13;;;;;;;16.77;10.63;;;14.00;73.30;;;;;;5097564;28;20031;-74
2021/09/22 03:54:39;;;;;;;19.08;10.32;;;13.90;72.90;;;;;;5102665;28;20043;-74
2021/09/22 03:57:04;;;;;;;15.48;10.27;;;14.00;72.70;;;;;;5095163;28;20042;-75
2021/09/22 03:59:30;;;;;;;19.20;11.23;;;14.00;72.80;;;;;;5088854;28;20035;-74
2021/09/22 04:01:56;;;;;;;18.52;11.68;;;14.00;72.80;;;;;;5095283;28;20027;-75
2021/09/22 04:04:22;;;;;;;18.63;11.73;;;13.90;72.90;;;;;;5077029;28;20024;-74
2021/09/22 04:06:47;;;;;;;16.98;10.10;;;14.00;72.90;;;;;;5102920;28;20038;-74
2021/09/22 04:09:15;;;;;;;18.23;11.23;;;14.00;73.00;;;;;;5115601;28;20621;-75
2021/09/22 04:11:42;;;;;;;19.15;11.43;;;14.00;72.80;;;;;;5115516;28;20047;-74
2021/09/22 04:14:10;;;;;;;19.92;11.73;;;14.00;73.30;;;;;;5095735;28;20410;-74
2021/09/22 04:16:36;;;;;;;22.73;12.02;;;13.90;73.10;;;;;;5081744;28;20402;-74
2021/09/22 04:19:01;;;;;;;20.55;12.13;;;13.90;73.20;;;;;;5095047;28;20028;-75
2021/09/22 04:21:27;;;;;;;21.88;12.27;;;14.00;73.00;;;;;;5095099;28;20037;-75
2021/09/22 04:23:53;;;;;;;19.15;11.30;;;13.90;73.30;;;;;;5094917;28;20115;-75
2021/09/22 04:26:19;;;;;;;19.35;11.88;;;14.00;73.00;;;;;;5077201;28;20036;-74
2021/09/22 04:28:44;;;;;;;19.52;11.45;;;13.90;72.80;;;;;;5094984;28;20028;-74
2021/09/22 04:31:10;;;;;;;18.70;11.52;;;14.00;72.80;;;;;;5082534;28;20489;-75
2021/09/22 04:33:36;;;;;;;23.38;12.98;;;13.90;73.00;;;;;;5094909;28;20073;-74
2021/09/22 04:36:01;;;;;;;19.30;12.10;;;13.90;73.20;;;;;;5080285;28;20036;-75
2021/09/22 04:38:27;;;;;;;20.55;12.38;;;14.00;73.00;;;;;;5114713;28;20550;-75
2021/09/22 04:40:53;;;;;;;21.05;11.38;;;13.90;73.10;;;;;;5119160;28;20382;-75
2021/09/22 04:43:19;;;;;;;20.52;12.73;;;13.90;73.00;;;;;;5136028;27;20080;-76
2021/09/22 04:45:47;;;;;;;23.13;13.32;;;13.80;73.30;;;;;;5126242;27;20034;-76
2021/09/22 04:48:16;;;;;;;18.75;12.02;;;13.80;73.40;;;;;;5118889;28;20028;-75
2021/09/22 04:50:41;;;;;;;22.35;12.70;;;13.70;73.50;;;;;;5099493;28;20019;-77
2021/09/22 04:53:07;;;;;;;21.75;12.52;;;13.80;73.40;;;;;;5100691;28;20035;-79
2021/09/22 04:55:33;;;;;;;22.42;12.48;;;13.70;73.40;;;;;;5100514;28;20035;-78
2021/09/22 04:57:59;;;;;;;18.77;11.70;;;13.70;73.60;;;;;;5100430;28;20031;-79
2021/09/22 05:00:24;;;;;;;19.17;11.45;;;13.70;73.70;;;;;;5118782;28;20393;-77
2021/09/22 05:02:50;;;;;;;20.77;12.05;;;13.60;73.50;;;;;;5080242;28;20035;-78
2021/09/22 05:05:26;;;;;;;;;;;;;;;;;;;;;
2021/09/22 05:07:52;;;;;;;20.88;12.23;;;13.60;73.80;;;;;;5099413;28;20039;-77
2021/09/22 05:10:17;;;;;;;24.60;12.65;;;13.60;73.60;;;;;;5087905;28;20510;-77
2021/09/22 05:12:43;;;;;;;19.30;12.27;;;13.70;73.50;;;;;;5097860;28;20059;-81
2021/09/22 05:15:09;;;;;;;16.98;11.18;;;13.70;73.60;;;;;;5118036;28;20024;-83
2021/09/22 05:17:35;;;;;;;22.42;12.48;;;13.70;73.70;;;;;;5117050;28;20027;-79
2021/09/22 05:20:01;;;;;;;20.30;11.80;;;13.70;73.60;;;;;;5116899;28;20026;-81
2021/09/22 05:22:30;;;;;;;23.55;12.80;;;13.60;73.90;;;;;;5116622;28;20031;-82
2021/09/22 05:24:55;;;;;;;25.15;13.60;;;13.50;73.90;;;;;;5106317;28;20028;-82
2021/09/22 05:27:21;;;;;;;22.05;12.68;;;13.50;74.10;;;;;;5111235;28;20023;-82
2021/09/22 05:29:47;;;;;;;21.92;12.40;;;13.50;73.90;;;;;;5096152;28;20197;-82
2021/09/22 05:32:13;;;;;;;20.70;12.15;;;13.40;74.00;;;;;;5096275;28;20032;-81
2021/09/22 05:34:39;;;;;;;21.65;14.10;;;13.40;74.10;;;;;;5094901;28;20035;-82
2021/09/22 05:37:05;;;;;;;23.63;14.10;;;13.40;74.10;;;;;;5117419;28;20027;-82
2021/09/22 05:39:30;;;;;;;24.15;12.68;;;13.30;73.90;;;;;;5110267;28;20021;-82
2021/09/22 05:41:56;;;;;;;20.60;12.13;;;13.40;73.80;;;;;;5117294;27;20047;-85
2021/09/22 05:44:22;;;;;;;18.98;12.25;;;13.40;73.50;;;;;;5110714;27;20051;-83
2021/09/22 05:46:48;;;;;;;19.13;11.82;;;13.50;73.30;;;;;;5116935;28;20474;-78
2021/09/22 05:49:13;;;;;;;19.65;12.25;;;13.50;73.10;;;;;;5117679;28;20027;-78
2021/09/22 05:51:39;;;;;;;20.58;11.70;;;13.50;73.10;;;;;;5098860;28;20038;-79
2021/09/22 05:54:05;;;;;;;20.73;12.07;;;13.50;73.00;;;;;;5094006;28;20454;-79
2021/09/22 05:56:35;;;;;;;20.55;11.88;;;13.40;72.90;;;;;;5097257;28;20028;-79
2021/09/22 05:59:00;;;;;;;17.65;10.70;;;13.40;73.00;;;;;;5097313;28;20420;-78
2021/09/22 06:01:26;;;;;;;19.80;12.35;;;13.30;73.20;;;;;;5095898;28;20036;-79
2021/09/22 06:03:52;;;;;;;20.50;11.82;;;13.30;73.30;;;;;;5078957;28;20028;-79
2021/09/22 06:06:17;;;;;;;20.42;12.00;;;13.30;73.30;;;;;;5095668;28;20027;-79
2021/09/22 06:08:43;;;;;;;19.40;12.18;;;13.30;73.30;;;;;;5099185;28;20842;-79
2021/09/22 06:11:09;;;;;;;19.15;11.93;;;13.30;73.20;;;;;;5099272;28;20114;-79
2021/09/22 06:13:35;;;;;;;21.55;12.18;;;13.20;73.50;;;;;;5094634;28;20028;-78
2021/09/22 06:16:00;;;;;;;19.45;12.02;;;13.20;73.50;;;;;;5078637;28;20131;-79
2021/09/22 06:18:26;;;;;;;18.88;12.40;;;13.20;73.50;;;;;;5097018;28;20027;-79
2021/09/22 06:20:52;;;;;;;18.95;11.80;;;13.30;73.40;;;;;;5103667;28;20788;-79
2021/09/22 06:23:17;;;;;;;19.98;11.43;;;13.20;73.40;;;;;;5117018;28;20516;-79
2021/09/22 06:25:43;;;;;;;24.17;12.77;;;13.30;73.20;;;;;;5098799;28;20652;-79
2021/09/22 06:28:09;;;;;;;23.73;13.23;;;13.30;73.20;;;;;;5097986;28;20027;-79
2021/09/22 06:30:35;;;;;;;22.65;13.70;;;13.30;73.30;;;;;;5098680;28;20027;-79
2021/09/22 06:33:00;;;;;;;20.00;12.15;;;13.30;73.20;;;;;;5100802;28;20078;-79
2021/09/22 06:35:27;;;;;;;23.70;12.23;;;13.30;73.30;;;;;;5096223;28;20367;-79
2021/09/22 06:37:52;;;;;;;20.88;12.13;;;13.30;73.20;;;;;;5096552;28;20024;-79
2021/09/22 06:40:22;;;;;;;20.52;11.82;;;13.30;73.50;;;;;;5096429;28;20093;-79
2021/09/22 06:42:48;;;;;;;21.58;13.07;;;13.30;73.30;;;;;;5119309;27;20023;-79
2021/09/22 06:45:16;;;;;;;20.48;12.10;;;13.30;73.30;;;;;;5116746;28;20038;-79
2021/09/22 06:47:43;;;;;;;22.83;12.30;;;13.40;73.10;;;;;;5105991;28;20542;-79
2021/09/22 06:50:09;;;;;;;19.73;12.30;;;13.50;72.90;;;;;;5094869;28;20086;-79
2021/09/22 06:52:35;;;;;;;19.23;11.75;;;13.60;72.80;;;;;;5096036;28;20493;-79
2021/09/22 06:55:01;;;;;;;23.67;12.40;;;14.10;71.50;;;;;;5104203;28;20090;-79
2021/09/22 06:57:27;;;;;;;20.58;12.52;;;14.50;70.10;;;;;;5116725;28;20412;-79
2021/09/22 06:59:53;;;;;;;23.50;12.68;;;14.40;70.10;;;;;;5098248;28;20167;-79
2021/09/22 07:02:19;;;;;;;22.58;13.13;;;14.30;70.40;;;;;;5093584;28;20054;-79
2021/09/22 07:04:44;;;;;;;22.67;12.43;;;14.40;70.30;;;;;;5095631;28;20024;-79
2021/09/22 07:07:10;;;;;;;19.73;11.90;;;14.80;69.30;;;;;;5095855;28;20031;-80
2021/09/22 07:09:36;;;;;;;18.52;11.25;;;14.90;69.10;;;;;;5094918;28;20393;-79
2021/09/22 07:12:03;;;;;;;18.88;11.50;;;14.90;68.70;;;;;;5094583;28;20020;-79
2021/09/22 07:14:28;;;;;;;17.00;11.02;;;15.00;68.80;;;;;;5112860;28;20119;-79
2021/09/22 07:16:54;;;;;;;16.98;11.38;;;15.10;68.60;;;;;;5093089;28;20055;-80
2021/09/22 07:19:20;;;;;;;18.80;11.23;;;15.80;67.00;;;;;;5095809;28;20074;-80
2021/09/22 07:21:46;;;;;;;19.85;12.45;;;16.50;64.90;;;;;;5077574;28;20031;-80
2021/09/22 07:24:12;;;;;;;17.58;10.82;;;17.60;62.30;;;;;;5094279;28;20052;-80
2021/09/22 07:26:38;;;;;;;19.27;12.32;;;18.50;59.70;;;;;;5101764;28;20031;-80
2021/09/22 07:29:07;;;;;;;15.90;11.32;;;19.10;57.80;;;;;;5098088;28;20048;-80
2021/09/22 07:31:34;;;;;;;16.50;11.55;;;19.00;58.30;;;;;;5116184;28;20023;-80
2021/09/22 07:34:00;;;;;;;16.05;10.77;;;18.30;59.50;;;;;;5115968;28;20028;-80
2021/09/22 07:36:26;;;;;;;19.15;12.45;;;17.90;60.70;;;;;;5093281;28;20035;-79
2021/09/22 07:38:52;;;;;;;19.80;12.75;;;17.60;61.70;;;;;;5095578;28;20111;-80
2021/09/22 07:41:17;;;;;;;15.43;11.38;;;17.50;62.00;;;;;;5095582;28;20035;-80
2021/09/22 07:43:43;;;;;;;17.48;12.32;;;17.40;62.40;;;;;;5126460;27;20024;-80
2021/09/22 07:46:09;;;;;;;17.85;11.60;;;17.40;62.40;;;;;;5095356;28;20168;-80
2021/09/22 07:48:35;;;;;;;17.13;11.30;;;17.50;62.70;;;;;;5095551;28;20060;-80
2021/09/22 07:51:02;;;;;;;18.83;13.13;;;17.70;62.40;;;;;;5095380;28;20027;-80
2021/09/22 07:53:28;;;;;;;20.35;12.68;;;18.00;61.40;;;;;;5095251;28;20028;-80
2021/09/22 07:55:53;;;;;;;19.23;12.15;;;18.30;60.90;;;;;;5077053;28;20021;-80
2021/09/22 07:58:19;;;;;;;15.02;10.75;;;18.50;60.20;;;;;;5095331;28;20024;-80
2021/09/22 08:00:45;;;;;;;16.58;11.80;;;18.80;59.60;;;;;;5093034;28;20032;-80
2021/09/22 08:03:11;;;;;;;19.83;11.60;;;18.80;59.30;;;;;;5094034;28;20024;-80
2021/09/22 08:05:40;;;;;;;18.20;11.85;;;19.00;59.10;;;;;;5106690;28;20092;-80
2021/09/22 08:08:07;;;;;;;15.57;11.23;;;19.00;59.30;;;;;;5095270;28;20028;-80
2021/09/22 08:10:37;;;;;;;13.82;10.32;;;18.60;59.70;;;;;;5098395;28;20027;-80
2021/09/22 08:13:03;;;;;;;15.85;10.68;;;18.30;60.90;;;;;;5081198;28;20028;-80
2021/09/22 08:15:29;;;;;;;17.17;11.70;;;18.00;61.70;;;;;;5081130;28;20028;-80
2021/09/22 08:17:55;;;;;;;15.52;10.07;;;17.90;62.10;;;;;;5092183;28;20024;-80
2021/09/22 08:20:21;;;;;;;18.13;10.68;;;17.80;63.40;;;;;;5097795;28;20111;-79
2021/09/22 08:22:48;;;;;;;16.77;10.60;;;17.70;62.80;;;;;;5097263;28;20101;-80
2021/09/22 08:25:14;;;;;;;17.35;11.18;;;17.80;62.60;;;;;;5080867;28;20039;-80
2021/09/22 08:27:40;;;;;;;15.02;10.75;;;17.80;62.20;;;;;;5080904;28;20128;-80
2021/09/22 08:30:08;;;;;;;16.27;11.82;;;17.90;63.00;;;;;;5097686;28;20020;-80
2021/09/22 08:32:34;;;;;;;16.85;11.95;;;18.10;62.90;;;;;;5097949;28;20040;-80
2021/09/22 08:35:00;;;;;;;16.67;11.82;;;18.30;61.30;;;;;;5098617;28;20048;-80
2021/09/22 08:37:26;;;;;;;19.27;11.80;;;18.50;61.50;;;;;;5080508;28;20423;-80
2021/09/22 08:39:52;;;;;;;17.15;11.82;;;18.80;60.90;;;;;;5097461;28;20028;-80
2021/09/22 08:42:18;;;;;;;17.25;11.55;;;19.20;60.00;;;;;;5115307;27;20019;-80
2021/09/22 08:44:43;;;;;;;17.13;11.82;;;19.30;58.20;;;;;;5121432;27;20151;-80
2021/09/22 08:47:09;;;;;;;18.88;12.02;;;19.80;57.70;;;;;;5100958;28;20099;-80
2021/09/22 08:49:40;;;;;;;16.67;11.57;;;20.30;56.50;;;;;;5117701;28;20032;-80
2021/09/22 08:52:06;;;;;;;16.52;11.35;;;20.80;55.50;;;;;;5119117;28;20019;-80
2021/09/22 08:54:32;;;;;;;16.88;11.45;;;21.10;54.70;;;;;;5118797;28;20084;-80
2021/09/22 08:57:01;;;;;;;14.48;10.57;;;21.20;53.90;;;;;;5100538;28;20053;-80
2021/09/22 08:59:27;;;;;;;15.60;10.55;;;21.20;53.90;;;;;;5099897;28;20030;-81
2021/09/22 09:02:12;;;;;;;15.50;10.35;;;21.20;54.00;;;;;;5118872;28;20036;-80
2021/09/22 09:04:40;;;;;;;15.43;10.07;;;20.80;54.30;;;;;;5100109;28;20034;-80
2021/09/22 09:07:06;;;;;;;13.88;10.18;;;20.50;56.70;;;;;;5115263;28;20517;-80
2021/09/22 09:09:40;;;;;;;13.52;10.00;;;20.10;57.00;;;;;;5098199;28;20390;-80
2021/09/22 09:12:22;;;;;;;12.65;9.45;;;19.90;57.70;;;;;;5080225;28;20020;-80
2021/09/22 09:15:01;;;;;;;12.75;9.70;;;19.60;58.10;;;;;;5104997;28;20024;-80
2021/09/22 09:17:44;;;;;;;12.18;8.57;;;19.50;59.60;;;;;;5118555;28;20024;-80
2021/09/22 09:20:17;;;;;;;12.45;8.82;;;19.40;59.10;;;;;;5100202;28;20624;-81
2021/09/22 09:23:01;;;;;;;13.45;8.25;;;19.40;59.60;;;;;;5095464;28;20032;-80
2021/09/22 09:25:29;;;;;;;13.20;8.77;;;19.40;59.50;;;;;;5097857;28;20056;-80
2021/09/22 09:27:55;;;;;;;15.30;9.07;;;19.50;59.60;;;;;;5098238;28;20024;-80
2021/09/22 09:30:24;;;;;;;11.88;9.02;;;19.50;59.60;;;;;;5079696;28;20048;-80
2021/09/22 09:32:50;;;;;;;12.98;8.65;;;19.60;59.40;;;;;;5096691;28;20024;-80
2021/09/22 09:35:21;;;;;;;11.13;7.78;;;19.70;59.20;;;;;;5079568;28;20031;-80
2021/09/22 09:37:55;;;;;;;10.98;7.57;;;19.90;58.90;;;;;;5079904;28;20024;-80
2021/09/22 09:40:28;;;;;;;10.23;8.07;;;20.20;58.40;;;;;;5108940;28;20032;-80
2021/09/22 09:42:56;;;;;;;11.55;7.95;;;20.40;56.40;;;;;;5110403;27;20026;-80
2021/09/22 09:45:23;;;;;;;12.18;8.20;;;20.60;56.40;;;;;;5109115;28;20032;-80
2021/09/22 09:48:06;;;;;;;12.07;8.20;;;20.80;55.90;;;;;;5097998;28;20107;-79
2021/09/22 09:50:40;;;;;;;11.77;8.20;;;20.80;54.60;;;;;;5097718;28;20024;-80
2021/09/22 09:53:07;;;;;;;10.77;8.05;;;20.70;54.80;;;;;;5097227;28;20059;-80
2021/09/22 09:55:37;;;;;;;11.93;7.93;;;20.50;57.30;;;;;;5097187;28;20111;-79
2021/09/22 09:58:03;;;;;;;12.80;7.80;;;20.40;57.10;;;;;;5096330;28;20025;-81
2021/09/22 10:00:38;;;;;;;12.73;9.07;;;20.30;56.00;;;;;;5097335;28;20036;-81
2021/09/22 10:03:22;;;;;;;11.80;7.68;;;20.20;55.80;;;;;;5097471;28;20024;-80
2021/09/22 10:05:50;;;;;;;12.23;8.80;;;20.20;57.90;;;;;;5097156;28;20103;-81
2021/09/22 10:08:20;;;;;;;12.82;9.43;;;20.30;57.90;;;;;;5097444;28;20020;-81
2021/09/22 10:10:48;;;;;;;10.13;8.35;;;20.30;57.50;;;;;;5078822;28;20024;-81
2021/09/22 10:13:16;;;;;;;11.18;7.85;;;20.30;57.70;;;;;;5097183;28;20024;-80
2021/09/22 10:15:44;;;;;;;11.07;7.70;;;20.40;57.20;;;;;;5097066;28;20024;-80
2021/09/22 10:18:10;;;;;;;8.88;7.43;;;20.40;57.20;;;;;;5096892;28;20024;-80
2021/09/22 10:20:41;;;;;;;10.82;7.82;;;20.50;57.00;;;;;;5078702;28;20027;-81
2021/09/22 10:23:08;;;;;;;9.77;7.68;;;20.60;57.40;;;;;;5096547;28;20059;-81
2021/09/22 10:25:35;;;;;;;12.30;8.10;;;20.50;56.50;;;;;;5097040;28;20039;-81
2021/09/22 10:28:02;;;;;;;13.68;7.45;;;20.60;56.50;;;;;;5096868;28;20099;-82
2021/09/22 10:30:35;;;;;;;9.93;7.88;;;20.70;56.80;;;;;;5096526;28;20028;-81
2021/09/22 10:33:02;;;;;;;9.80;7.45;;;20.70;56.20;;;;;;5096692;28;20030;-82
2021/09/22 10:35:35;;;;;;;8.73;7.07;;;20.80;56.60;;;;;;5096178;28;20032;-81
2021/09/22 10:38:22;;;;;;;9.77;7.70;;;20.80;56.30;;;;;;5096876;28;20092;-82
2021/09/22 10:40:52;;;;;;;10.75;7.88;;;20.80;56.30;;;;;;5105542;28;20023;-81
2021/09/22 10:43:23;;;;;;;10.68;7.70;;;20.90;57.10;;;;;;5128030;27;20019;-81
2021/09/22 10:46:07;;;;;;;10.43;7.20;;;20.90;56.50;;;;;;5098387;28;20035;-81
2021/09/22 10:48:35;;;;;;;10.27;6.75;;;21.00;55.70;;;;;;5116795;28;20055;-82
2021/09/22 10:51:04;;;;;;;8.23;6.65;;;21.00;55.90;;;;;;5115554;28;20020;-81
2021/09/22 10:53:33;;;;;;;10.30;7.13;;;21.20;54.80;;;;;;5116749;28;20023;-82
2021/09/22 10:56:15;;;;;;;9.07;6.78;;;21.30;54.80;;;;;;5116514;28;20058;-79
2021/09/22 10:58:56;;;;;;;9.90;6.85;;;21.20;55.40;;;;;;5097617;28;20028;-86
2021/09/22 11:01:31;;;;;;;9.70;7.43;;;21.10;55.10;;;;;;5095983;28;20054;-82
2021/09/22 11:04:04;;;;;;;10.70;7.20;;;21.20;53.10;;;;;;5109771;28;20041;-83
2021/09/22 11:09:23;;;;;;;8.25;6.80;;;21.40;55.00;;;;;;5113044;28;20028;-82
2021/09/22 11:11:55;;;;;;;9.02;6.43;;;21.40;54.00;;;;;;5095825;28;20030;-83
2021/09/22 11:14:27;;;;;;;8.75;6.85;;;21.50;53.20;;;;;;5110992;28;20080;-84
2021/09/22 11:16:59;;;;;;;9.60;6.78;;;21.60;52.50;;;;;;5115067;28;20035;-83
2021/09/22 11:19:25;;;;;;;11.20;8.05;;;21.50;52.00;;;;;;5110102;28;20027;-83
2021/09/22 11:21:52;;;;;;;10.75;7.65;;;21.60;53.10;;;;;;5115050;28;20026;-85
2021/09/22 11:24:22;;;;;;;8.73;6.90;;;21.60;53.10;;;;;;5114861;28;20458;-82
2021/09/22 11:26:54;;;;;;;8.57;6.88;;;21.30;53.10;;;;;;5113401;28;20024;-82
2021/09/22 11:29:49;;;;;;;9.02;7.03;;;21.20;52.80;;;;;;5112741;28;20046;-84
2021/09/22 11:32:29;;;;;;;10.77;6.93;;;21.10;54.10;;;;;;5096465;28;20069;-85
2021/09/22 11:34:58;;;;;;;10.20;7.47;;;21.00;53.60;;;;;;5114524;28;20015;-86
2021/09/22 11:37:30;;;;;;;9.50;6.80;;;21.00;53.50;;;;;;5113919;28;20020;-86
2021/09/22 11:40:06;;;;;;;8.20;6.30;;;21.20;53.90;;;;;;5109745;28;20027;-84
2021/09/22 11:42:32;;;;;;;8.82;6.80;;;21.30;54.20;;;;;;5109726;28;20370;-85
2021/09/22 11:44:58;;;;;;;8.98;6.68;;;21.40;52.40;;;;;;5111370;28;20030;-90
2021/09/22 11:47:24;;;;;;;9.40;7.10;;;21.60;53.10;;;;;;5097288;28;20034;-79
2021/09/22 11:49:50;;;;;;;10.57;7.55;;;21.70;51.80;;;;;;5113614;28;20140;-80
2021/09/22 11:52:19;;;;;;;8.90;7.03;;;21.80;52.30;;;;;;5114511;28;20047;-80
2021/09/22 11:54:44;;;;;;;9.63;6.70;;;22.00;51.80;;;;;;5095444;28;20073;-80
2021/09/22 11:57:14;;;;;;;10.50;6.68;;;22.10;50.90;;;;;;5116398;28;20036;-81
2021/09/22 11:59:42;;;;;;;8.00;6.38;;;22.20;50.10;;;;;;5118612;28;20456;-81
2021/09/22 12:02:08;;;;;;;7.35;5.72;;;22.30;50.60;;;;;;5114573;28;20024;-82
2021/09/22 12:04:39;;;;;;;7.88;6.28;;;22.40;50.40;;;;;;5115698;28;20031;-80
2021/09/22 12:07:07;;;;;;;7.63;5.80;;;22.50;49.50;;;;;;5093246;28;20070;-77
2021/09/22 12:09:44;;;;;;;7.70;6.03;;;22.60;51.20;;;;;;5092942;28;20107;-79
2021/09/22 12:12:15;;;;;;;8.43;6.85;;;22.70;49.00;;;;;;5100978;28;20025;-79
2021/09/22 12:14:47;;;;;;;7.82;6.05;;;22.70;48.80;;;;;;5105784;28;20032;-80
2021/09/22 12:17:14;;;;;;;7.03;5.50;;;22.70;49.40;;;;;;5099308;28;20119;-80
2021/09/22 12:19:41;;;;;;;10.15;5.85;;;22.70;49.90;;;;;;5113359;28;20019;-80
2021/09/22 12:22:08;;;;;;;6.85;5.63;;;22.70;49.00;;;;;;5101455;28;20063;-80
2021/09/22 12:24:36;;;;;;;7.88;5.25;;;22.70;49.70;;;;;;5114217;28;20031;-80
2021/09/22 12:27:02;;;;;;;6.30;4.68;;;22.80;47.90;;;;;;5104261;28;20405;-80
2021/09/22 12:29:28;;;;;;;7.45;5.63;;;22.80;48.80;;;;;;5113085;28;20488;-80
2021/09/22 12:31:55;;;;;;;6.22;4.88;;;22.80;48.30;;;;;;5114776;28;20104;-79
2021/09/22 12:34:23;;;;;;;6.15;4.88;;;22.80;49.00;;;;;;5114550;28;20489;-80
2021/09/22 12:36:54;;;;;;;6.13;4.85;;;22.80;49.60;;;;;;5112778;28;20846;-79